Time;durP1;ratioP1;P1;durP2;ratioP2;P2;SDS_P1;SDS_P2;PMS_P1;PMS_P2;Temp;Humidity;BMP_temperature;BMP_pressure;BME280_temperature;BME280_humidity;BME280_pressure;Samples;Min_cycle;Max_cycle;Signal;HPM_P1;HPM_P2
2023/03/28 00:01:20;;;;;;;12.63;5.10;;;;;;;-145.69;100.00;52539.44;5075322;28;20199;-79
2023/03/28 00:03:48;;;;;;;9.57;5.07;;;;;;;-145.69;100.00;52543.41;5075551;28;20198;-79
2023/03/28 00:06:17;;;;;;;11.53;4.83;;;;;;;-145.69;100.00;52551.31;5075318;28;20199;-79
2023/03/28 00:08:46;;;;;;;8.90;4.60;;;;;;;-145.69;100.00;52531.53;5074835;28;20280;-79
2023/03/28 00:11:18;;;;;;;12.40;4.97;;;;;;;-145.69;100.00;52569.16;5074722;28;20206;-79
2023/03/28 00:13:46;;;;;;;8.37;4.70;;;;;;;-145.69;100.00;52600.84;5074852;28;20586;-79
2023/03/28 00:16:13;;;;;;;11.90;5.07;;;;;;;-145.69;100.00;52547.38;5075374;28;20624;-79
2023/03/28 00:18:41;;;;;;;10.07;4.57;;;;;;;-145.69;100.00;52553.31;5075226;28;20206;-78
2023/03/28 00:21:22;;;;;;;12.07;5.17;;;;;;;-145.69;100.00;52583.00;5075231;28;20241;-79
2023/03/28 00:23:52;;;;;;;13.77;5.37;;;;;;;-145.69;100.00;52547.38;5075413;28;20209;-78
2023/03/28 00:26:19;;;;;;;10.47;5.40;;;;;;;-145.69;100.00;52569.16;5075145;28;20759;-78
2023/03/28 00:28:47;;;;;;;11.10;5.17;;;;;;;-145.69;100.00;52571.13;5074922;28;20233;-79
2023/03/28 00:31:14;;;;;;;17.30;5.87;;;;;;;-145.69;100.00;52571.13;5074931;28;20201;-79
2023/03/28 00:33:42;;;;;;;13.17;5.57;;;;;;;-145.69;100.00;52561.22;5074907;28;20207;-79
2023/03/28 00:36:13;;;;;;;9.93;4.80;;;;;;;-145.69;100.00;52549.34;5075113;28;20241;-79
2023/03/28 00:38:40;;;;;;;9.57;4.63;;;;;;;-145.69;100.00;52531.53;5075065;28;20209;-79
2023/03/28 00:41:08;;;;;;;9.77;4.90;;;;;;;-145.69;100.00;52541.44;5074527;28;20203;-79
2023/03/28 00:43:37;;;;;;;13.20;5.17;;;;;;;-145.69;100.00;52527.56;5074379;28;20309;-79
2023/03/28 00:46:10;;;;;;;12.20;5.63;;;;;;;-145.69;100.00;52551.31;5074740;28;20605;-79
2023/03/28 00:48:41;;;;;;;12.27;5.17;;;;;;;-145.69;100.00;52533.50;5074907;28;20206;-78
2023/03/28 00:51:07;;;;;;;9.77;5.50;;;;;;;-145.69;100.00;52553.31;5074814;28;20298;-78
2023/03/28 00:53:37;;;;;;;7.57;4.77;;;;;;;-145.69;100.00;52567.16;5074511;28;20195;-79
2023/03/28 00:56:10;;;;;;;12.53;5.40;;;;;;;-145.69;100.00;52575.09;5074594;28;20206;-78
2023/03/28 00:58:44;;;;;;;9.53;5.20;;;;;;;-145.69;100.00;52581.03;5074484;28;20203;-78
2023/03/28 01:01:14;;;;;;;13.50;5.47;;;;;;;-145.69;100.00;52547.38;5074332;28;20202;-79
2023/03/28 01:03:45;;;;;;;10.20;5.63;;;;;;;-145.69;100.00;52565.19;5074122;28;20207;-79
2023/03/28 01:06:15;;;;;;;12.20;6.13;;;;;;;-145.69;100.00;52543.41;5074415;28;20203;-78
2023/03/28 01:08:45;;;;;;;17.30;6.37;;;;;;;-145.69;100.00;52571.13;5074285;28;20206;-79
2023/03/28 01:11:16;;;;;;;17.13;6.20;;;;;;;-145.69;100.00;52575.09;5073542;28;20240;-78
2023/03/28 01:13:47;;;;;;;15.23;6.83;;;;;;;-145.69;100.00;52559.25;5073904;28;20649;-79
2023/03/28 01:16:15;;;;;;;15.50;6.30;;;;;;;-145.69;100.00;52559.25;5074359;28;20195;-78
2023/03/28 01:18:45;;;;;;;11.97;6.53;;;;;;;-145.69;100.00;52581.03;5073968;28;20256;-79
2023/03/28 01:21:49;;;;;;;13.40;6.97;;;;;;;-145.69;100.00;52563.22;5073454;28;20202;-78
2023/03/28 01:25:05;;;;;;;19.30;6.73;;;;;;;-145.69;100.00;52571.13;4992069;28;20209;-78
2023/03/28 01:27:40;;;;;;;15.93;7.40;;;;;;;-145.69;100.00;52561.22;5073913;28;20228;-78
2023/03/28 01:30:27;;;;;;;12.37;6.47;;;;;;;-145.69;100.00;52563.22;5074195;28;20222;-79
2023/03/28 01:33:43;;;;;;;14.57;6.80;;;;;;;-145.69;100.00;52575.09;5073936;28;20206;-78
2023/03/28 01:36:41;;;;;;;14.57;6.10;;;;;;;-145.69;100.00;52561.22;5051382;28;20199;-78
2023/03/28 01:39:23;;;;;;;13.47;6.77;;;;;;;-145.69;100.00;52543.41;5072857;28;20210;-78
2023/03/28 01:41:59;;;;;;;13.27;6.97;;;;;;;-145.69;100.00;52555.28;5056562;28;20211;-78
2023/03/28 01:44:35;;;;;;;16.40;7.70;;;;;;;-145.69;100.00;52555.28;5073582;28;20229;-78
2023/03/28 01:47:12;;;;;;;17.13;7.87;;;;;;;-145.69;100.00;52561.22;5073736;28;20558;-78
2023/03/28 01:49:47;;;;;;;20.93;8.63;;;;;;;-145.69;100.00;52598.84;5073388;28;20236;-79
2023/03/28 01:52:22;;;;;;;18.53;7.57;;;;;;;-145.69;100.00;52579.06;5073243;28;20194;-78
2023/03/28 01:55:06;;;;;;;16.20;8.40;;;;;;;-145.69;100.00;52583.00;5073472;28;20206;-78
2023/03/28 01:57:38;;;;;;;19.43;7.70;;;;;;;-145.69;100.00;52555.28;5073084;28;20217;-78
2023/03/28 02:00:12;;;;;;;16.63;7.23;;;;;;;-145.69;100.00;52567.16;5073550;28;20195;-79
2023/03/28 02:02:43;;;;;;;16.60;8.00;;;;;;;-145.69;100.00;52535.47;5073278;28;20198;-79
2023/03/28 02:05:14;;;;;;;18.47;8.10;;;;;;;-145.69;100.00;52565.19;5073283;28;20573;-78
2023/03/28 02:07:45;;;;;;;16.30;8.17;;;;;;;-145.69;100.00;52594.91;5073212;28;20222;-79
2023/03/28 02:10:14;;;;;;;17.23;8.50;;;;;;;-145.69;100.00;52573.13;5072894;28;20261;-78
2023/03/28 02:12:47;;;;;;;17.80;8.43;;;;;;;-145.69;100.00;52563.22;5073143;28;20653;-79
2023/03/28 02:15:17;;;;;;;19.63;8.50;;;;;;;-145.69;100.00;52606.78;5073212;28;20203;-78
2023/03/28 02:17:50;;;;;;;19.93;9.17;;;;;;;-145.69;100.00;52559.25;5073225;28;20206;-78
2023/03/28 02:20:19;;;;;;;16.10;7.93;;;;;;;-145.69;100.00;52543.41;5073352;28;20194;-78
2023/03/28 02:22:53;;;;;;;19.23;8.30;;;;;;;-145.69;100.00;52567.16;5073305;28;20203;-78
2023/03/28 02:25:20;;;;;;;20.50;8.60;;;;;;;-145.69;100.00;52551.31;5073133;28;20615;-79
2023/03/28 02:27:50;;;;;;;21.60;8.67;;;;;;;-145.69;100.00;52555.28;5072956;28;20210;-78
2023/03/28 02:30:17;;;;;;;18.80;8.80;;;;;;;-145.69;100.00;52585.00;5072766;28;20322;-78
2023/03/28 02:32:49;;;;;;;20.03;8.40;;;;;;;-145.69;100.00;52539.44;5073112;28;20290;-78
2023/03/28 02:35:20;;;;;;;21.17;8.33;;;;;;;-145.69;100.00;52583.00;5072397;28;20271;-78
2023/03/28 02:37:58;;;;;;;19.73;8.13;;;;;;;-145.69;100.00;52581.03;5072365;28;20195;-78
2023/03/28 02:40:40;;;;;;;17.83;8.20;;;;;;;-145.69;100.00;52533.50;5072656;28;20202;-78
2023/03/28 02:43:45;;;;;;;19.07;8.37;;;;;;;-145.69;100.00;52539.44;5072766;28;20222;-78
2023/03/28 02:46:20;;;;;;;15.53;8.10;;;;;;;-145.69;100.00;52553.31;5063991;28;20293;-78
2023/03/28 02:49:01;;;;;;;17.53;8.40;;;;;;;-145.69;100.00;52559.25;5072879;28;20205;-79
2023/03/28 02:51:33;;;;;;;16.40;8.30;;;;;;;-145.69;100.00;52559.25;5073001;28;20198;-79
2023/03/28 02:54:13;;;;;;;23.03;8.90;;;;;;;-145.69;100.00;52567.16;5072941;28;20203;-79
2023/03/28 02:56:49;;;;;;;19.13;9.20;;;;;;;-145.69;100.00;52559.25;5072722;28;20222;-78
2023/03/28 02:59:23;;;;;;;21.47;8.90;;;;;;;-145.69;100.00;52573.13;5072004;28;20198;-78
2023/03/28 03:01:50;;;;;;;20.00;9.20;;;;;;;-145.69;100.00;52563.22;5072885;28;20202;-79
2023/03/28 03:04:16;;;;;;;16.53;8.43;;;;;;;-145.69;100.00;52553.31;5072792;28;20198;-79
2023/03/28 03:06:44;;;;;;;18.80;8.90;;;;;;;-145.69;100.00;52583.00;5072411;28;20539;-79
2023/03/28 03:09:12;;;;;;;15.80;8.37;;;;;;;-145.69;100.00;52588.97;5072253;28;20241;-79
2023/03/28 03:11:39;;;;;;;19.43;8.37;;;;;;;-145.69;100.00;52571.13;5072539;28;20199;-79
2023/03/28 03:14:05;;;;;;;22.43;8.80;;;;;;;-145.69;100.00;52602.81;5072060;28;20199;-79
2023/03/28 03:16:32;;;;;;;18.97;8.60;;;;;;;-145.69;100.00;52551.31;5072694;28;20199;-79
2023/03/28 03:18:58;;;;;;;24.77;9.30;;;;;;;-145.69;100.00;52594.91;5072610;28;20206;-79
2023/03/28 03:21:26;;;;;;;28.40;10.03;;;;;;;-145.69;100.00;52539.44;5072560;28;20301;-79
2023/03/28 03:23:52;;;;;;;25.73;10.70;;;;;;;-145.69;100.00;52579.06;5072446;28;20207;-79
2023/03/28 03:26:21;;;;;;;18.70;10.03;;;;;;;-145.69;100.00;52575.09;5072327;28;20210;-80
2023/03/28 03:28:48;;;;;;;22.33;9.43;;;;;;;-145.69;100.00;52616.69;5072253;28;20241;-80
2023/03/28 03:31:16;;;;;;;20.27;9.60;;;;;;;-145.69;100.00;52569.16;5071949;28;20313;-79
2023/03/28 03:33:42;;;;;;;20.60;8.90;;;;;;;-145.69;100.00;52541.44;5072518;28;20205;-80
2023/03/28 03:36:11;;;;;;;18.27;8.17;;;;;;;-145.69;100.00;52585.00;5072128;28;20199;-80
2023/03/28 03:38:38;;;;;;;20.87;8.73;;;;;;;-145.69;100.00;52598.84;5072351;28;20203;-79
2023/03/28 03:41:05;;;;;;;17.07;7.87;;;;;;;-145.69;100.00;52590.94;5065059;28;20204;-80
2023/03/28 03:43:33;;;;;;;17.33;8.87;;;;;;;-145.69;100.00;52586.97;5051744;28;20231;-80
2023/03/28 03:46:01;;;;;;;20.60;9.83;;;;;;;-145.69;100.00;52575.09;5068894;28;20198;-80
2023/03/28 03:48:27;;;;;;;21.37;9.73;;;;;;;-145.69;100.00;52590.94;5075938;28;20194;-79
2023/03/28 03:50:54;;;;;;;19.77;8.70;;;;;;;-145.69;100.00;52586.97;5075839;28;20230;-79
2023/03/28 03:53:20;;;;;;;18.27;8.80;;;;;;;-145.69;100.00;52586.97;5075813;28;20577;-79
2023/03/28 03:55:47;;;;;;;18.07;8.97;;;;;;;-145.69;100.00;52604.81;5075786;28;20198;-80
2023/03/28 03:58:13;;;;;;;19.60;8.07;;;;;;;-145.69;100.00;52571.13;5075887;28;20203;-80
2023/03/28 04:00:43;;;;;;;20.90;8.27;;;;;;;-145.69;100.00;52581.03;5075578;28;20198;-80
2023/03/28 04:03:10;;;;;;;19.27;8.67;;;;;;;-145.69;100.00;52598.84;5075430;28;20368;-80
2023/03/28 04:05:36;;;;;;;20.47;8.80;;;;;;;-145.69;100.00;52571.13;5075531;28;20210;-80
2023/03/28 04:08:03;;;;;;;17.87;8.30;;;;;;;-145.69;100.00;52567.16;5075539;28;20198;-80
2023/03/28 04:10:29;;;;;;;20.30;9.23;;;;;;;-145.69;100.00;52594.91;5075933;28;20229;-80
2023/03/28 04:12:56;;;;;;;20.77;8.10;;;;;;;-145.69;100.00;52581.03;5075941;28;20210;-80
2023/03/28 04:15:22;;;;;;;16.87;8.57;;;;;;;-145.69;100.00;52583.00;5076156;28;20206;-80
2023/03/28 04:17:55;;;;;;;17.77;7.63;;;;;;;-145.69;100.00;52634.50;5074576;28;20250;-80
2023/03/28 04:20:22;;;;;;;19.30;8.77;;;;;;;-145.69;100.00;52598.84;5075976;28;20241;-80
2023/03/28 04:22:49;;;;;;;20.37;9.07;;;;;;;-145.69;100.00;52586.97;5075148;28;20206;-80
2023/03/28 04:25:20;;;;;;;17.53;8.53;;;;;;;-145.69;100.00;52575.09;5075744;28;20215;-80
2023/03/28 04:27:47;;;;;;;17.57;8.50;;;;;;;-145.69;100.00;52571.13;5075184;28;20256;-79
2023/03/28 04:30:16;;;;;;;23.17;9.23;;;;;;;-145.69;100.00;52586.97;5075048;28;20222;-80
2023/03/28 04:32:43;;;;;;;18.73;9.10;;;;;;;-145.69;100.00;52614.72;5075098;28;20195;-80
2023/03/28 04:35:11;;;;;;;22.60;9.63;;;;;;;-145.69;100.00;52579.06;5075322;28;20235;-79
2023/03/28 04:37:38;;;;;;;20.27;9.10;;;;;;;-145.69;100.00;52575.09;5075399;28;20206;-81
2023/03/28 04:40:09;;;;;;;20.07;8.13;;;;;;;-145.69;100.00;52571.13;5074853;28;20195;-80
2023/03/28 04:42:36;;;;;;;20.87;8.23;;;;;;;-145.69;100.00;52606.78;5073860;28;20227;-80
2023/03/28 04:45:04;;;;;;;19.57;8.37;;;;;;;-145.69;100.00;52618.66;5075412;28;20198;-81
2023/03/28 04:47:30;;;;;;;20.37;9.03;;;;;;;-145.69;100.00;52571.13;5076332;28;20696;-81
2023/03/28 04:49:57;;;;;;;19.80;8.83;;;;;;;-145.69;100.00;52539.44;5076773;28;20230;-80
2023/03/28 04:52:26;;;;;;;19.47;9.23;;;;;;;-145.69;100.00;52561.22;5076675;28;20272;-81
2023/03/28 04:54:52;;;;;;;19.67;9.77;;;;;;;-145.69;100.00;52590.94;5076181;28;20191;-81
2023/03/28 04:57:19;;;;;;;28.87;10.63;;;;;;;-145.69;100.00;52583.00;5076014;28;20664;-80
2023/03/28 04:59:45;;;;;;;30.10;11.53;;;;;;;-145.69;100.00;52547.38;5075950;28;20191;-80
2023/03/28 05:02:11;;;;;;;27.20;11.03;;;;;;;-145.69;100.00;52563.22;5075573;28;20191;-81
2023/03/28 05:04:39;;;;;;;39.27;11.27;;;;;;;-145.69;100.00;52588.97;5075546;28;20213;-80
2023/03/28 05:07:06;;;;;;;26.10;10.17;;;;;;;-145.69;100.00;52575.09;5075986;28;20565;-80
2023/03/28 05:09:35;;;;;;;17.53;8.97;;;;;;;-145.69;100.00;52588.97;5075747;28;20589;-80
2023/03/28 05:12:02;;;;;;;28.23;11.37;;;;;;;-145.69;100.00;52561.22;5076432;28;20462;-80
2023/03/28 05:14:28;;;;;;;25.80;10.00;;;;;;;-145.69;100.00;52563.22;5075641;28;20446;-80
2023/03/28 05:16:55;;;;;;;25.23;10.10;;;;;;;-145.69;100.00;52588.97;5075240;28;20573;-80
2023/03/28 05:19:21;;;;;;;29.77;11.53;;;;;;;-145.69;100.00;52557.28;5075033;28;20211;-80
2023/03/28 05:21:48;;;;;;;25.27;10.57;;;;;;;-145.69;100.00;52575.09;5075853;28;20201;-81
2023/03/28 05:24:16;;;;;;;28.10;10.50;;;;;;;-145.69;100.00;52586.97;5077378;28;20203;-81
2023/03/28 05:26:44;;;;;;;28.33;10.50;;;;;;;-145.69;100.00;52608.75;5076241;28;20202;-80
2023/03/28 05:29:11;;;;;;;23.63;10.43;;;;;;;-145.69;100.00;52590.94;5076282;28;20206;-81
2023/03/28 05:31:37;;;;;;;34.70;11.47;;;;;;;-145.69;100.00;52563.22;5075642;28;20245;-80
2023/03/28 05:34:04;;;;;;;28.67;11.53;;;;;;;-145.69;100.00;52606.78;5071082;28;20217;-81
2023/03/28 05:36:31;;;;;;;29.40;11.20;;;;;;;-145.69;100.00;52596.88;5076810;28;20252;-81
2023/03/28 05:38:57;;;;;;;30.80;12.00;;;;;;;-145.69;100.00;52561.22;5076781;28;20203;-81
2023/03/28 05:41:24;;;;;;;27.07;11.03;;;;;;;-145.69;100.00;52571.13;5077426;28;20211;-81
2023/03/28 05:43:52;;;;;;;29.20;12.17;;;;;;;-145.69;100.00;52602.81;5077388;28;20234;-81
2023/03/28 05:46:18;;;;;;;26.67;10.93;;;;;;;-145.69;100.00;52555.28;5077512;28;20206;-81
2023/03/28 05:48:45;;;;;;;26.73;10.73;;;;;;;-145.69;100.00;52559.25;5079032;28;20206;-80
2023/03/28 05:51:11;;;;;;;30.47;11.13;;;;;;;-145.69;100.00;52575.09;5077415;28;20234;-81
2023/03/28 05:53:38;;;;;;;24.00;9.23;;;;;;;-145.69;100.00;52541.44;5076045;28;20209;-80
2023/03/28 05:56:05;;;;;;;27.90;11.37;;;;;;;-145.69;100.00;52547.38;5075693;28;20195;-80
2023/03/28 05:58:31;;;;;;;26.40;11.30;;;;;;;-145.69;100.00;52588.97;5076510;28;20199;-80
2023/03/28 06:01:01;;;;;;;24.23;9.50;;;;;;;-145.69;100.00;52573.13;5076743;28;20654;-81
2023/03/28 06:03:30;;;;;;;22.07;9.27;;;;;;;-145.69;100.00;52598.84;5076997;28;20204;-80
2023/03/28 06:05:56;;;;;;;23.10;10.03;;;;;;;-145.69;100.00;52571.13;5076072;28;20691;-81
2023/03/28 06:08:23;;;;;;;24.13;10.77;;;;;;;-145.69;100.00;52567.16;5075297;28;20195;-81
2023/03/28 06:10:50;;;;;;;22.60;9.33;;;;;;;-145.69;100.00;52565.19;5075500;28;20226;-80
2023/03/28 06:13:16;;;;;;;20.80;8.40;;;;;;;-145.69;100.00;52563.22;5075577;28;20692;-81
2023/03/28 06:15:43;;;;;;;17.63;8.77;;;;;;;-145.69;100.00;52585.00;5076112;28;20207;-81
2023/03/28 06:18:11;;;;;;;20.30;9.57;;;;;;;-145.69;100.00;52596.88;5075809;28;20661;-81
2023/03/28 06:20:37;;;;;;;21.17;9.83;;;;;;;-145.69;100.00;52573.13;5075760;28;20661;-81
2023/03/28 06:23:04;;;;;;;20.50;9.00;;;;;;;-145.69;100.00;52573.13;5076834;28;20241;-80
2023/03/28 06:25:30;;;;;;;23.07;9.30;;;;;;;-145.69;100.00;52561.22;5076686;28;20220;-81
2023/03/28 06:27:57;;;;;;;24.60;9.67;;;;;;;-145.69;100.00;52539.44;5077329;28;20246;-81
2023/03/28 06:30:26;;;;;;;17.57;8.23;;;;;;;-145.69;100.00;52579.06;5078477;28;20195;-81
2023/03/28 06:32:55;;;;;;;15.40;7.83;;;;;;;-145.69;100.00;52547.38;5078940;28;20234;-81
2023/03/28 06:35:36;;;;;;;17.70;9.17;;;;;;;-145.69;100.00;52565.19;5078195;28;20206;-81
2023/03/28 06:38:03;;;;;;;17.97;8.60;;;;;;;-145.69;100.00;52588.97;5074843;28;20649;-81
2023/03/28 06:40:29;;;;;;;16.27;8.40;;;;;;;-145.69;100.00;52579.06;5075281;28;20281;-80
2023/03/28 06:42:58;;;;;;;14.63;8.00;;;;;;;-145.69;100.00;52545.38;5073749;28;20317;-80
2023/03/28 06:45:25;;;;;;;18.00;8.63;;;;;;;-145.69;100.00;52592.91;5073862;28;20657;-81
2023/03/28 06:47:53;;;;;;;17.57;7.43;;;;;;;-145.69;100.00;52563.22;5073090;28;20230;-80
2023/03/28 06:50:23;;;;;;;13.93;7.60;;;;;;;-145.69;100.00;52549.34;5073018;28;20282;-81
2023/03/28 06:53:00;;;;;;;12.57;6.87;;;;;;;-145.69;100.00;52579.06;5073059;28;20199;-79
2023/03/28 06:55:31;;;;;;;14.13;6.40;;;;;;;-145.69;100.00;52583.00;5072588;28;20669;-79
2023/03/28 06:57:58;;;;;;;12.83;6.10;;;;;;;-145.69;100.00;52547.38;5072605;28;20202;-79
2023/03/28 07:00:25;;;;;;;12.37;6.97;;;;;;;-145.69;100.00;52577.06;5072304;28;20661;-80
2023/03/28 07:02:53;;;;;;;12.23;6.27;;;;;;;-145.69;100.00;52573.13;5072218;28;20207;-80
2023/03/28 07:05:22;;;;;;;9.90;5.73;;;;;;;-145.69;100.00;52588.97;5070680;28;20199;-80
2023/03/28 07:07:54;;;;;;;12.20;5.63;;;;;;;-145.69;100.00;52565.19;5072613;28;20672;-80
2023/03/28 07:10:22;;;;;;;12.93;5.60;;;;;;;-145.69;100.00;52590.94;5072464;28;20199;-79
2023/03/28 07:12:49;;;;;;;16.30;6.43;;;;;;;-145.69;100.00;52547.38;5072457;28;20657;-79
2023/03/28 07:15:15;;;;;;;18.30;5.50;;;;;;;-145.69;100.00;52618.66;5072547;28;20210;-79
2023/03/28 07:17:42;;;;;;;11.00;5.73;;;;;;;-145.69;100.00;52600.84;5072394;28;20206;-79
2023/03/28 07:20:09;;;;;;;11.63;5.80;;;;;;;-145.69;100.00;52561.22;5074055;28;20271;-79
2023/03/28 07:22:35;;;;;;;13.27;5.27;;;;;;;-145.69;100.00;52583.00;5076333;28;20214;-79
2023/03/28 07:25:02;;;;;;;10.73;5.50;;;;;;;-145.69;100.00;52571.13;5076166;28;20207;-80
2023/03/28 07:27:32;;;;;;;10.37;5.00;;;;;;;-145.69;100.00;52571.13;5076167;28;20561;-80
2023/03/28 07:29:58;;;;;;;7.37;3.80;;;;;;;-145.69;100.00;52531.53;5076136;28;20215;-79
2023/03/28 07:32:25;;;;;;;12.80;3.73;;;;;;;-145.69;100.00;52543.41;5075588;28;20219;-80
2023/03/28 07:34:51;;;;;;;6.47;3.60;;;;;;;-145.69;100.00;52569.16;5073250;28;20210;-80
2023/03/28 07:37:18;;;;;;;11.77;4.00;;;;;;;-145.69;100.00;52541.44;5058694;28;20206;-81
2023/03/28 07:39:47;;;;;;;14.60;3.67;;;;;;;-145.69;100.00;52590.94;5076128;28;20285;-80
2023/03/28 07:42:16;;;;;;;6.00;2.93;;;;;;;-145.69;100.00;52551.31;5076316;28;20234;-80
2023/03/28 07:44:44;;;;;;;11.53;2.80;;;;;;;-145.69;100.00;52553.31;5076306;28;20607;-79
2023/03/28 07:47:18;;;;;;;8.67;3.17;;;;;;;-145.69;100.00;52531.53;5075930;28;20202;-77
2023/03/28 07:49:48;;;;;;;10.60;2.87;;;;;;;-145.69;100.00;52569.16;5076091;28;20286;-80
2023/03/28 07:52:14;;;;;;;3.00;2.20;;;;;;;-145.69;100.00;52513.69;5075821;28;20233;-79
2023/03/28 07:54:43;;;;;;;8.50;2.47;;;;;;;-145.69;100.00;52571.13;5075936;28;20569;-80
2023/03/28 07:57:09;;;;;;;4.40;2.33;;;;;;;-145.69;100.00;52525.59;5075822;28;20230;-80
2023/03/28 07:59:36;;;;;;;5.70;2.60;;;;;;;-145.69;100.00;52541.44;5075616;28;20222;-81
2023/03/28 08:02:12;;;;;;;5.95;2.67;;;;;;;-145.69;100.00;52539.44;5074939;28;20525;-81
2023/03/28 08:04:41;;;;;;;12.63;2.80;;;;;;;-145.69;100.00;52551.31;5075729;28;20198;-79
2023/03/28 08:07:08;;;;;;;5.40;2.33;;;;;;;-145.69;100.00;52545.38;5075556;28;20213;-79
2023/03/28 08:09:39;;;;;;;7.00;2.67;;;;;;;-145.69;100.00;52539.44;5068234;28;20556;-78
2023/03/28 08:12:08;;;;;;;12.00;5.20;;;;;;;-145.69;100.00;52551.31;5075365;28;20233;-78
2023/03/28 08:14:35;;;;;;;5.10;2.20;;;;;;;-145.69;100.00;52531.53;5075563;28;20568;-79
2023/03/28 08:17:02;;;;;;;7.47;2.27;;;;;;;-145.69;100.00;52505.78;5075768;28;20222;-81
2023/03/28 08:19:35;;;;;;;4.40;2.40;;;;;;;-145.69;100.00;52511.72;5075590;28;20199;-80
2023/03/28 08:22:02;;;;;;;7.03;2.60;;;;;;;-145.69;100.00;52523.59;5055447;28;20200;-79
2023/03/28 08:24:28;;;;;;;11.40;3.40;;;;;;;-145.69;100.00;52543.41;5065297;28;20202;-81
2023/03/28 08:26:55;;;;;;;3.40;1.83;;;;;;;-145.69;96.89;52529.53;5075204;28;20199;-80
2023/03/28 08:29:24;;;;;;;6.50;2.13;;;;;;;-145.69;96.84;52547.38;5074785;28;20209;-80
2023/03/28 08:31:50;;;;;;;11.00;2.10;;;;;;;-145.69;94.42;52531.53;5075110;28;20258;-79
2023/03/28 08:34:17;;;;;;;5.87;2.10;;;;;;;-145.69;91.81;52551.31;5061665;28;20195;-82
2023/03/28 08:36:48;;;;;;;5.93;2.60;;;;;;;-145.69;94.72;52480.03;5066056;28;20195;-80
2023/03/28 08:39:17;;;;;;;8.47;1.90;;;;;;;-145.69;90.30;52513.69;5073563;28;20199;-82
2023/03/28 08:42:05;;;;;;;8.07;1.80;;;;;;;-145.69;84.55;52523.59;5074850;28;20202;-80
2023/03/28 08:45:07;;;;;;;5.87;2.03;;;;;;;-145.69;85.69;52515.69;5074944;28;20208;-79
2023/03/28 08:47:43;;;;;;;7.40;2.10;;;;;;;-145.69;92.25;52525.59;5074098;28;20445;-79
2023/03/28 08:50:17;;;;;;;6.27;2.00;;;;;;;-145.69;90.57;52537.47;5074406;28;20657;-79
2023/03/28 08:52:47;;;;;;;4.83;1.70;;;;;;;-145.69;86.22;52535.47;5074532;28;20231;-80
2023/03/28 08:55:29;;;;;;;5.40;2.00;;;;;;;-145.69;96.74;52523.59;5074367;28;20243;-80
2023/03/28 08:57:58;;;;;;;6.80;1.90;;;;;;;-145.69;72.56;52531.53;5073535;28;20856;-79
2023/03/28 09:00:28;;;;;;;6.77;1.90;;;;;;;-145.69;72.72;52509.75;5074464;28;20278;-79
2023/03/28 09:02:58;;;;;;;5.63;2.03;;;;;;;-145.69;83.38;52521.63;5074578;28;20286;-79
2023/03/28 09:05:34;;;;;;;5.73;2.20;;;;;;;-145.69;84.24;52511.72;5074314;28;20547;-80
2023/03/28 09:08:14;;;;;;;4.87;1.90;;;;;;;-145.69;79.77;52519.63;5074501;28;20203;-79
2023/03/28 09:10:45;;;;;;;4.53;1.77;;;;;;;-145.69;65.73;52543.41;5074514;28;20214;-80
2023/03/28 09:13:26;;;;;;;5.90;1.83;;;;;;;-145.69;76.90;52505.78;5074029;28;20223;-78
2023/03/28 09:16:05;;;;;;;4.73;1.90;;;;;;;-145.69;70.75;52531.53;5074325;28;20203;-79
2023/03/28 09:18:56;;;;;;;4.07;1.40;;;;;;;-145.69;54.97;52517.66;5074180;28;20243;-79
2023/03/28 09:21:33;;;;;;;4.00;1.50;;;;;;;-145.69;55.88;52523.59;5074328;28;20225;-79
2023/03/28 09:24:18;;;;;;;4.17;1.87;;;;;;;-145.69;65.33;52515.69;5073906;28;20205;-80
2023/03/28 09:26:51;;;;;;;5.33;1.63;;;;;;;-145.69;62.37;52468.16;5073757;28;20195;-80
2023/03/28 09:29:23;;;;;;;5.70;1.40;;;;;;;-145.69;58.48;52480.03;5073898;28;20187;-79
2023/03/28 09:31:54;;;;;;;4.30;1.60;;;;;;;-145.69;64.50;52501.81;5073425;28;20586;-79
2023/03/28 09:34:26;;;;;;;1.93;1.27;;;;;;;-145.69;59.33;52503.81;5074055;28;20203;-80
2023/03/28 09:36:54;;;;;;;2.23;1.70;;;;;;;-145.69;52.96;52529.53;5073912;28;20257;-79
2023/03/28 09:39:32;;;;;;;2.40;1.40;;;;;;;-145.69;72.86;52480.03;5067618;28;20203;-79
2023/03/28 09:42:04;;;;;;;4.85;1.58;;;;;;;-145.69;73.57;52489.94;5052667;28;20519;-79
2023/03/28 09:44:37;;;;;;;5.63;1.50;;;;;;;-145.69;53.94;52533.50;5052695;28;20286;-79
2023/03/28 09:47:10;;;;;;;8.27;1.33;;;;;;;-145.69;56.87;52513.69;5053802;28;20207;-79
2023/03/28 09:49:37;;;;;;;4.57;1.53;;;;;;;-145.69;57.23;52505.78;5053787;28;20200;-80
2023/03/28 09:52:14;;;;;;;4.87;1.77;;;;;;;-145.69;59.24;52513.69;5053438;28;20223;-80
2023/03/28 09:54:43;;;;;;;4.63;1.50;;;;;;;-145.69;64.09;52531.53;5066691;28;20203;-80
2023/03/28 09:57:09;;;;;;;3.30;1.20;;;;;;;-145.69;62.28;52515.69;5073615;28;20205;-81
2023/03/28 09:59:36;;;;;;;5.87;1.50;;;;;;;-145.69;57.23;52511.72;5073426;28;20207;-81
2023/03/28 10:02:05;;;;;;;3.90;1.47;;;;;;;-145.69;56.83;52501.81;5072720;28;20202;-80
2023/03/28 10:04:35;;;;;;;3.20;1.37;;;;;;;-145.69;52.30;52493.91;5073133;28;20620;-80
2023/03/28 10:07:32;;;;;;;2.70;1.20;;;;;;;-145.69;50.54;52482.00;5073246;28;20205;-80
2023/03/28 10:10:10;;;;;;;4.70;1.53;;;;;;;-145.69;49.24;52484.00;5073290;28;20203;-80
2023/03/28 10:12:40;;;;;;;5.37;1.33;;;;;;;-145.69;49.61;52491.91;5073212;28;20228;-79
2023/03/28 10:15:38;;;;;;;6.93;1.47;;;;;;;-145.69;64.86;52452.31;5073438;28;20199;-79
2023/03/28 10:18:05;;;;;;;1.57;1.10;;;;;;;-145.69;53.22;52478.06;5072976;28;20198;-80
2023/03/28 10:20:36;;;;;;;3.33;1.30;;;;;;;-145.69;57.26;52527.56;5073095;28;20198;-80
2023/03/28 10:23:03;;;;;;;2.10;1.40;;;;;;;-145.69;51.65;52480.03;5073118;28;20222;-80
2023/03/28 10:25:37;;;;;;;4.70;1.37;;;;;;;-145.69;49.67;52485.97;5072736;28;20201;-79
2023/03/28 10:28:06;;;;;;;3.83;1.27;;;;;;;-145.69;58.32;52497.84;5072930;28;20661;-80
2023/03/28 10:30:36;;;;;;;1.90;1.30;;;;;;;-145.69;50.32;52456.28;5072645;28;20187;-80
2023/03/28 10:33:20;;;;;;;5.93;1.40;;;;;;;-145.69;50.39;52487.97;5073070;28;20268;-80
2023/03/28 10:35:56;;;;;;;2.20;1.10;;;;;;;-145.69;49.68;52507.75;5072800;28;20260;-79
2023/03/28 10:38:26;;;;;;;2.97;1.50;;;;;;;-145.69;53.20;52456.28;5073098;28;20226;-79
2023/03/28 10:41:00;;;;;;;2.20;1.40;;;;;;;-145.69;54.37;52456.28;5072971;28;20206;-79
2023/03/28 10:43:33;;;;;;;4.17;1.47;;;;;;;-145.69;46.64;52450.31;5072667;28;20601;-80
2023/03/28 10:46:02;;;;;;;3.00;1.50;;;;;;;-145.69;46.02;52482.00;5072975;28;20203;-80
2023/03/28 10:48:32;;;;;;;9.37;1.87;;;;;;;-145.69;59.41;52464.19;5072808;28;20202;-80
2023/03/28 10:51:07;;;;;;;2.83;1.40;;;;;;;-145.69;52.13;52501.81;5072807;28;20293;-80
2023/03/28 10:53:48;;;;;;;3.47;1.27;;;;;;;-145.69;45.85;52476.06;5072523;28;20221;-79
2023/03/28 10:56:25;;;;;;;3.40;1.30;;;;;;;-145.69;45.46;52464.19;5072157;28;20675;-80
2023/03/28 10:59:05;;;;;;;2.70;1.43;;;;;;;-145.69;48.69;52460.22;5072626;28;20206;-80
2023/03/28 11:01:43;;;;;;;3.17;1.60;;;;;;;-145.69;46.80;52468.16;5071108;28;20626;-80
2023/03/28 11:04:26;;;;;;;3.93;1.30;;;;;;;-145.69;43.66;52474.09;5072607;28;20202;-80
2023/03/28 11:06:59;;;;;;;6.23;1.20;;;;;;;-145.69;46.06;52482.00;5072095;28;20195;-80
2023/03/28 11:09:37;;;;;;;2.47;1.40;;;;;;;-145.69;51.08;52491.91;5072690;28;20203;-79
2023/03/28 11:12:17;;;;;;;1.40;1.20;;;;;;;-145.69;47.43;52450.31;5072628;28;20219;-80
2023/03/28 11:14:59;;;;;;;2.23;1.53;;;;;;;-145.69;46.60;52495.88;5073189;28;20236;-81
2023/03/28 11:17:41;;;;;;;2.83;1.47;;;;;;;-145.69;48.66;52474.09;5073617;28;20199;-82
2023/03/28 11:20:27;;;;;;;3.27;1.33;;;;;;;-145.69;45.26;52472.13;5073212;28;20293;-81
2023/03/28 11:23:09;;;;;;;4.93;1.60;;;;;;;-145.69;45.41;52505.78;5073027;28;20198;-81